createdAt,value
2018-04-18T00:01:54.151Z,103.63
2018-04-18T00:04:20.905Z,92.53
2018-04-18T00:06:47.739Z,94.30
2018-04-18T00:09:14.504Z,115.40
2018-04-18T00:11:41.261Z,109.07
2018-04-18T00:14:08.046Z,95.20
2018-04-18T00:16:34.945Z,103.63
2018-04-18T00:19:01.689Z,99.53
2018-04-18T00:21:28.469Z,95.40
2018-04-18T00:23:55.231Z,95.80
2018-04-18T00:26:21.989Z,102.30
2018-04-18T00:28:48.748Z,101.37
2018-04-18T00:31:15.510Z,98.67
2018-04-18T00:33:42.273Z,106.23
2018-04-18T00:36:09.066Z,108.53
2018-04-18T00:38:35.845Z,109.03
2018-04-18T00:41:02.724Z,111.43
2018-04-18T00:43:29.473Z,138.33
2018-04-18T00:45:56.242Z,115.47
2018-04-18T00:48:22.999Z,108.50
2018-04-18T00:50:49.785Z,102.60
2018-04-18T00:53:16.548Z,95.37
2018-04-18T00:55:43.321Z,103.03
2018-04-18T00:58:10.087Z,100.97
2018-04-18T01:00:36.967Z,93.70
2018-04-18T01:03:03.721Z,93.63
2018-04-18T01:05:30.491Z,87.37
2018-04-18T01:07:57.245Z,78.20
2018-04-18T01:10:24.133Z,93.17
2018-04-18T01:12:50.932Z,94.97
2018-04-18T01:15:17.691Z,94.27
2018-04-18T01:17:44.481Z,85.57
2018-04-18T01:20:11.310Z,85.67
2018-04-18T01:22:38.164Z,77.53
2018-04-18T01:25:04.947Z,79.07
2018-04-18T01:27:31.698Z,75.10
2018-04-18T01:29:58.461Z,78.33
2018-04-18T01:32:25.232Z,78.73
2018-04-18T01:34:51.993Z,75.00
2018-04-18T01:37:18.746Z,71.77
2018-04-18T01:39:45.500Z,72.70
2018-04-18T01:42:12.272Z,73.90
2018-04-18T01:44:39.039Z,70.40
2018-04-18T01:47:05.788Z,84.80
2018-04-18T01:49:32.556Z,77.70
2018-04-18T01:51:59.306Z,81.03
2018-04-18T01:54:26.062Z,79.20
2018-04-18T01:56:52.838Z,72.23
2018-04-18T01:59:19.773Z,75.37
2018-04-18T02:01:46.540Z,77.27
2018-04-18T02:10:54.729Z,63.27
2018-04-18T02:13:21.531Z,68.73
2018-04-18T02:15:48.261Z,81.57
2018-04-18T02:18:15.021Z,78.83
2018-04-18T02:20:41.774Z,88.17
2018-04-18T02:23:08.577Z,89.33
2018-04-18T02:25:35.310Z,81.77
2018-04-18T02:28:02.103Z,87.37
2018-04-18T02:30:28.853Z,90.47
2018-04-18T02:32:55.654Z,75.07
2018-04-18T02:35:22.422Z,71.00
2018-04-18T02:37:49.172Z,75.70
2018-04-18T02:40:15.912Z,69.00
2018-04-18T02:42:42.686Z,76.63
2018-04-18T02:45:09.442Z,78.07
2018-04-18T02:47:36.189Z,71.83
2018-04-18T02:50:02.981Z,64.93
2018-04-18T02:52:29.742Z,70.50
2018-04-18T02:54:56.484Z,66.37
2018-04-18T02:57:23.236Z,70.50
2018-04-18T02:59:50.009Z,67.03
2018-04-18T03:02:16.767Z,68.10
2018-04-18T03:04:43.524Z,72.23
2018-04-18T03:07:10.296Z,69.40
2018-04-18T03:09:37.025Z,76.27
2018-04-18T03:12:03.771Z,72.63
2018-04-18T03:14:30.516Z,77.97
2018-04-18T03:16:57.296Z,69.13
2018-04-18T03:19:24.089Z,64.80
2018-04-18T03:28:32.296Z,58.33
2018-04-18T03:30:59.049Z,67.77
2018-04-18T03:33:25.802Z,63.40
2018-04-18T03:35:52.553Z,70.63
2018-04-18T03:38:19.345Z,67.77
2018-04-18T03:40:46.232Z,70.73
2018-04-18T03:43:12.993Z,68.47
2018-04-18T03:45:39.760Z,65.53
2018-04-18T03:48:06.529Z,62.27
2018-04-18T03:50:33.310Z,67.90
2018-04-18T03:53:00.065Z,74.30
2018-04-18T03:55:26.804Z,70.17
2018-04-18T03:57:53.593Z,62.80
2018-04-18T04:00:20.336Z,72.80
2018-04-18T04:02:47.123Z,75.33
2018-04-18T04:05:13.898Z,82.07
2018-04-18T04:07:40.649Z,72.77
2018-04-18T04:10:07.448Z,69.67
2018-04-18T04:12:34.197Z,78.87
2018-04-18T04:15:00.984Z,77.67
2018-04-18T04:17:33.632Z,85.50
2018-04-18T04:20:06.311Z,79.47
2018-04-18T04:22:38.933Z,72.17
2018-04-18T04:25:05.759Z,85.67
2018-04-18T04:27:32.453Z,76.83
2018-04-18T04:29:59.194Z,76.10
2018-04-18T04:32:25.950Z,78.67
2018-04-18T04:34:52.842Z,73.90
2018-04-18T04:37:19.601Z,78.37
2018-04-18T04:39:46.356Z,78.27
2018-04-18T04:42:13.113Z,73.93
2018-04-18T04:44:40.040Z,77.97
2018-04-18T04:47:06.788Z,79.23
2018-04-18T04:49:33.526Z,77.43
2018-04-18T04:52:00.273Z,77.17
2018-04-18T04:54:27.053Z,68.60
2018-04-18T04:56:53.846Z,59.47
2018-04-18T04:59:20.636Z,52.57
2018-04-18T05:01:47.407Z,50.97
2018-04-18T05:04:14.190Z,51.70
2018-04-18T05:06:40.997Z,48.47
2018-04-18T05:09:07.786Z,48.60
2018-04-18T05:11:34.511Z,44.63
2018-04-18T05:14:01.264Z,46.03
2018-04-18T05:16:28.377Z,42.63
2018-04-18T05:18:55.165Z,43.03
2018-04-18T05:21:22.679Z,38.03
2018-04-18T05:23:49.449Z,38.20
2018-04-18T05:26:16.249Z,34.90
2018-04-18T05:28:43.475Z,32.50
2018-04-18T05:31:10.248Z,35.87
2018-04-18T05:33:37.951Z,36.53
2018-04-18T05:36:04.753Z,31.43
2018-04-18T05:38:31.520Z,32.73
2018-04-18T05:40:58.333Z,31.63
2018-04-18T05:43:25.092Z,29.57
2018-04-18T05:45:51.874Z,33.13
2018-04-18T05:48:18.665Z,31.33
2018-04-18T05:50:45.457Z,32.63
2018-04-18T05:53:12.244Z,28.60
2018-04-18T05:55:39.033Z,32.57
2018-04-18T05:58:05.849Z,29.10
2018-04-18T06:00:32.661Z,32.70
2018-04-18T06:02:59.508Z,29.67
2018-04-18T06:05:26.293Z,29.53
2018-04-18T06:07:53.126Z,35.73
2018-04-18T06:10:19.914Z,30.60
2018-04-18T06:12:46.760Z,31.53
2018-04-18T06:15:13.588Z,33.47
2018-04-18T06:17:40.345Z,36.20
2018-04-18T06:20:07.144Z,33.13
2018-04-18T06:22:33.943Z,37.97
2018-04-18T06:25:00.697Z,35.67
2018-04-18T06:27:27.476Z,34.37
2018-04-18T06:29:54.255Z,33.80
2018-04-18T06:32:21.734Z,34.30
2018-04-18T06:34:48.514Z,35.30
2018-04-18T06:37:15.281Z,35.20
2018-04-18T06:39:42.037Z,43.23
2018-04-18T06:42:08.801Z,34.40
2018-04-18T06:44:35.599Z,31.73
2018-04-18T06:47:02.354Z,37.63
2018-04-18T06:49:29.136Z,37.47
2018-04-18T06:51:55.909Z,38.90
2018-04-18T06:54:22.677Z,37.23
2018-04-18T06:56:49.441Z,33.00
2018-04-18T06:59:16.188Z,34.20
2018-04-18T07:01:43.005Z,35.20
2018-04-18T07:04:10.626Z,35.50
2018-04-18T07:06:37.568Z,30.00
2018-04-18T07:09:04.379Z,30.90
2018-04-18T07:11:31.370Z,34.10
2018-04-18T07:13:58.144Z,38.53
2018-04-18T07:16:24.941Z,29.90
2018-04-18T07:18:51.693Z,35.70
2018-04-18T07:21:18.451Z,32.23
2018-04-18T07:23:45.253Z,31.40
2018-04-18T07:26:12.081Z,40.17
2018-04-18T07:28:38.868Z,32.20
2018-04-18T07:31:05.633Z,31.77
2018-04-18T07:33:32.381Z,33.83
2018-04-18T07:35:59.133Z,34.13
2018-04-18T07:38:25.904Z,30.93
2018-04-18T07:40:52.693Z,31.60
2018-04-18T07:43:19.463Z,30.13
2018-04-18T07:45:46.226Z,35.70
2018-04-18T07:48:12.981Z,31.50
2018-04-18T07:50:39.776Z,31.23
2018-04-18T07:53:06.536Z,32.87
2018-04-18T07:55:33.332Z,29.93
2018-04-18T07:58:00.211Z,32.97
2018-04-18T08:00:27.982Z,33.23
2018-04-18T08:02:54.758Z,29.30
2018-04-18T08:05:21.543Z,32.03
2018-04-18T08:07:48.317Z,30.90
2018-04-18T08:10:15.103Z,34.77
2018-04-18T08:12:41.877Z,33.50
2018-04-18T08:15:08.638Z,32.23
2018-04-18T08:17:35.392Z,28.70
2018-04-18T08:20:02.161Z,23.00
2018-04-18T08:22:28.992Z,26.10
2018-04-18T08:24:55.798Z,28.07
2018-04-18T08:27:22.573Z,28.90
2018-04-18T08:29:49.301Z,29.23
2018-04-18T08:32:16.063Z,23.43
2018-04-18T08:34:42.857Z,17.40
2018-04-18T08:37:09.615Z,18.93
2018-04-18T08:39:36.370Z,19.40
2018-04-18T08:42:03.148Z,22.23
2018-04-18T08:44:30.054Z,18.03
2018-04-18T08:46:56.837Z,22.20
2018-04-18T08:49:23.609Z,18.90
2018-04-18T08:51:50.379Z,16.23
2018-04-18T08:54:17.475Z,16.57
2018-04-18T08:56:44.471Z,16.23
2018-04-18T08:59:13.739Z,16.27
2018-04-18T09:01:40.564Z,14.23
2018-04-18T09:04:07.360Z,17.57
2018-04-18T09:06:34.178Z,15.33
2018-04-18T09:09:00.970Z,19.23
2018-04-18T09:11:27.732Z,18.97
2018-04-18T09:13:54.488Z,19.77
2018-04-18T09:16:21.261Z,18.67
2018-04-18T09:18:48.033Z,17.13
2018-04-18T09:21:14.819Z,18.03
2018-04-18T09:23:42.101Z,16.03
2018-04-18T09:26:08.848Z,15.97
2018-04-18T09:28:35.628Z,24.27
2018-04-18T09:31:02.389Z,15.20
2018-04-18T09:33:29.179Z,16.00
2018-04-18T09:35:55.984Z,14.03
2018-04-18T09:38:22.740Z,15.47
2018-04-18T09:40:49.578Z,9.60
2018-04-18T09:43:16.364Z,15.50
2018-04-18T09:45:43.166Z,17.73
2018-04-18T09:48:09.936Z,11.97
2018-04-18T09:50:36.760Z,13.60
2018-04-18T09:53:03.545Z,15.03
2018-04-18T09:55:30.417Z,14.27
2018-04-18T09:57:57.308Z,11.97
2018-04-18T10:00:29.808Z,12.70
2018-04-18T10:03:02.362Z,14.17
2018-04-18T10:05:29.254Z,12.43
2018-04-18T10:07:56.041Z,13.13
2018-04-18T10:10:23.449Z,9.63
2018-04-18T10:12:50.209Z,11.73
2018-04-18T10:15:16.977Z,14.13
2018-04-18T10:17:43.751Z,18.70
2018-04-18T10:20:10.499Z,17.53
2018-04-18T10:22:37.262Z,18.23
2018-04-18T10:25:04.035Z,14.10
2018-04-18T10:27:30.849Z,11.83
2018-04-18T10:29:57.608Z,12.63
2018-04-18T10:32:24.351Z,14.90
2018-04-18T10:34:51.101Z,15.80
2018-04-18T10:37:17.881Z,10.90
2018-04-18T10:39:44.645Z,13.50
2018-04-18T10:42:11.420Z,17.73
2018-04-18T10:44:38.310Z,12.30
2018-04-18T10:47:05.068Z,10.87
2018-04-18T10:49:31.846Z,17.03
2018-04-18T10:51:58.691Z,17.87
2018-04-18T10:54:25.461Z,11.77
2018-04-18T10:56:52.262Z,8.27
2018-04-18T10:59:19.072Z,16.33
2018-04-18T11:01:45.978Z,14.10
2018-04-18T11:04:12.738Z,12.63
2018-04-18T11:06:39.484Z,20.47
2018-04-18T11:09:06.263Z,12.27
2018-04-18T11:11:33.097Z,13.07
2018-04-18T11:13:59.879Z,11.23
2018-04-18T11:16:26.646Z,15.10
2018-04-18T11:18:53.435Z,13.10
2018-04-18T11:21:20.284Z,9.43
2018-04-18T11:23:47.076Z,10.00
2018-04-18T11:26:13.822Z,11.13
2018-04-18T11:28:40.581Z,13.70
2018-04-18T11:31:07.340Z,15.00
2018-04-18T11:33:34.099Z,11.47
2018-04-18T11:36:00.850Z,13.47
2018-04-18T11:38:27.880Z,7.53
2018-04-18T11:40:54.651Z,7.80
2018-04-18T11:43:21.440Z,10.23
2018-04-18T11:45:48.198Z,11.40
2018-04-18T11:48:14.954Z,10.30
2018-04-18T11:50:41.735Z,10.43
2018-04-18T11:53:08.462Z,9.10
2018-04-18T11:55:35.253Z,7.43
2018-04-18T11:58:02.036Z,7.30
2018-04-18T12:00:28.808Z,8.73
2018-04-18T12:02:55.559Z,10.10
2018-04-18T12:05:22.354Z,8.90
2018-04-18T12:07:49.111Z,10.47
2018-04-18T12:10:15.857Z,10.70
2018-04-18T12:12:42.601Z,11.13
2018-04-18T12:15:09.381Z,9.27
2018-04-18T12:17:36.151Z,11.97
2018-04-18T12:20:02.913Z,9.57
2018-04-18T12:22:29.732Z,9.10
2018-04-18T12:24:56.518Z,6.43
2018-04-18T12:27:23.266Z,24.80
2018-04-18T12:29:50.073Z,10.37
2018-04-18T12:32:16.895Z,13.20
2018-04-18T12:34:44.354Z,9.30
2018-04-18T12:37:11.145Z,8.70
2018-04-18T12:39:37.892Z,9.03
2018-04-18T12:42:04.633Z,6.43
2018-04-18T12:44:31.389Z,8.97
2018-04-18T12:46:58.145Z,8.83
2018-04-18T12:49:24.965Z,10.20
2018-04-18T12:58:33.199Z,12.17
2018-04-18T13:00:59.957Z,10.83
2018-04-18T13:03:26.776Z,13.43
2018-04-18T13:05:53.533Z,12.10
2018-04-18T13:08:20.380Z,7.20
2018-04-18T13:10:47.189Z,11.50
2018-04-18T13:13:13.952Z,10.03
2018-04-18T13:15:40.697Z,10.97
2018-04-18T13:18:07.478Z,9.50
2018-04-18T13:20:34.310Z,16.13
2018-04-18T13:23:01.081Z,9.83
2018-04-18T13:25:27.864Z,12.73
2018-04-18T13:27:54.642Z,11.27
2018-04-18T13:30:21.414Z,11.10
2018-04-18T13:32:48.177Z,11.30
2018-04-18T13:35:14.973Z,9.07
2018-04-18T13:37:41.987Z,9.27
2018-04-18T13:40:08.771Z,9.03
2018-04-18T13:42:35.565Z,12.10
2018-04-18T13:45:02.421Z,11.07
2018-04-18T13:47:29.198Z,8.53
2018-04-18T13:49:56.047Z,9.73
2018-04-18T13:52:22.840Z,8.60
2018-04-18T13:54:49.709Z,10.13
2018-04-18T13:57:16.466Z,10.03
2018-04-18T13:59:43.268Z,11.13
2018-04-18T14:02:10.077Z,10.73
2018-04-18T14:04:36.867Z,11.20
2018-04-18T14:07:03.773Z,11.07
2018-04-18T14:09:30.568Z,12.27
2018-04-18T14:11:57.329Z,9.23
2018-04-18T14:14:24.144Z,9.77
2018-04-18T14:16:50.909Z,7.17
2018-04-18T14:19:17.679Z,7.87
2018-04-18T14:21:44.441Z,12.20
2018-04-18T14:24:11.233Z,11.50
2018-04-18T14:26:38.131Z,8.80
2018-04-18T14:29:04.897Z,13.87
2018-04-18T14:31:31.648Z,16.10
2018-04-18T14:33:58.430Z,11.93
2018-04-18T14:36:25.184Z,13.40
2018-04-18T14:38:52.026Z,12.97
2018-04-18T14:41:18.796Z,12.60
2018-04-18T14:43:45.577Z,12.03
2018-04-18T14:46:12.343Z,11.50
2018-04-18T14:48:39.081Z,16.83
2018-04-18T14:51:05.909Z,11.47
2018-04-18T14:53:32.652Z,11.03
2018-04-18T14:55:59.443Z,11.27
2018-04-18T14:58:26.258Z,12.17
2018-04-18T15:00:53.302Z,7.93
2018-04-18T15:03:20.093Z,11.83
2018-04-18T15:05:46.890Z,7.30
2018-04-18T15:08:13.647Z,10.17
2018-04-18T15:10:40.618Z,9.83
2018-04-18T15:13:07.364Z,12.73
2018-04-18T15:15:34.158Z,12.03
2018-04-18T15:18:00.945Z,12.50
2018-04-18T15:20:27.719Z,10.10
2018-04-18T15:22:54.478Z,11.83
2018-04-18T15:25:21.245Z,13.23
2018-04-18T15:27:48.370Z,94.87
2018-04-18T15:30:15.182Z,12.43
2018-04-18T15:32:42.085Z,11.70
2018-04-18T15:35:09.014Z,15.40
2018-04-18T15:37:35.813Z,10.43
2018-04-18T15:40:02.607Z,10.83
2018-04-18T15:42:29.412Z,13.87
2018-04-18T15:44:56.166Z,15.87
2018-04-18T15:47:23.146Z,14.10
2018-04-18T15:49:50.008Z,10.73
2018-04-18T15:52:16.787Z,13.63
2018-04-18T15:54:43.590Z,17.63
2018-04-18T15:57:10.376Z,13.80
2018-04-18T15:59:37.429Z,13.43
2018-04-18T16:02:04.204Z,11.93
2018-04-18T16:04:30.984Z,15.60
2018-04-18T16:06:57.795Z,12.77
2018-04-18T16:09:24.617Z,11.00
2018-04-18T16:11:51.433Z,9.23
2018-04-18T16:14:18.210Z,12.07
2018-04-18T16:16:45.049Z,12.00
2018-04-18T16:19:11.863Z,14.53
2018-04-18T16:21:38.619Z,14.33
2018-04-18T16:24:05.417Z,16.37
2018-04-18T16:26:32.248Z,12.17
2018-04-18T16:28:59.034Z,12.87
2018-04-18T16:31:25.829Z,11.93
2018-04-18T16:33:52.613Z,14.50
2018-04-18T16:36:19.519Z,13.13
2018-04-18T16:38:46.393Z,14.30
2018-04-18T16:41:13.243Z,14.40
2018-04-18T16:43:40.011Z,15.60
2018-04-18T16:46:06.889Z,15.33
2018-04-18T16:48:33.824Z,11.00
2018-04-18T16:51:00.571Z,13.60
2018-04-18T16:53:27.372Z,15.00
2018-04-18T16:55:54.153Z,13.57
2018-04-18T16:58:20.935Z,14.80
2018-04-18T17:00:47.711Z,12.37
2018-04-18T17:03:14.610Z,14.53
2018-04-18T17:05:41.547Z,13.63
2018-04-18T17:08:08.348Z,14.70
2018-04-18T17:10:35.134Z,15.90
2018-04-18T17:13:01.939Z,19.07
2018-04-18T17:15:28.725Z,13.23
2018-04-18T17:17:55.496Z,16.30
2018-04-18T17:20:22.303Z,14.47
2018-04-18T17:22:49.065Z,12.53
2018-04-18T17:25:15.902Z,15.27
2018-04-18T17:27:42.768Z,17.07
2018-04-18T17:30:09.523Z,17.10
2018-04-18T17:32:36.313Z,13.07
2018-04-18T17:35:03.097Z,15.10
2018-04-18T17:37:29.907Z,16.37
2018-04-18T17:39:56.748Z,15.67
2018-04-18T17:42:23.541Z,20.67
2018-04-18T17:44:50.345Z,18.50
2018-04-18T17:47:17.153Z,20.80
2018-04-18T17:49:43.969Z,19.20
2018-04-18T17:52:10.734Z,21.53
2018-04-18T17:54:37.513Z,20.53
2018-04-18T17:57:04.355Z,17.03
2018-04-18T17:59:31.174Z,22.67
2018-04-18T18:01:57.929Z,20.57
2018-04-18T18:04:24.768Z,22.00
2018-04-18T18:06:51.525Z,20.63
2018-04-18T18:09:18.412Z,16.57
2018-04-18T18:11:45.240Z,18.37
2018-04-18T18:14:12.026Z,16.40
2018-04-18T18:16:38.806Z,21.47
2018-04-18T18:19:05.640Z,18.13
2018-04-18T18:21:32.475Z,17.20
2018-04-18T18:23:59.254Z,19.93
2018-04-18T18:26:26.194Z,22.13
2018-04-18T18:28:52.998Z,26.57
2018-04-18T18:31:19.785Z,21.87
2018-04-18T18:33:46.608Z,21.67
2018-04-18T18:36:13.477Z,21.60
2018-04-18T18:38:40.309Z,21.67
2018-04-18T18:41:07.155Z,21.50
2018-04-18T18:43:33.960Z,24.50
2018-04-18T18:46:00.789Z,22.57
2018-04-18T18:48:27.589Z,22.83
2018-04-18T18:50:54.397Z,22.70
2018-04-18T18:53:21.167Z,23.57
2018-04-18T18:55:47.998Z,21.73
2018-04-18T18:58:14.829Z,21.07
2018-04-18T19:00:41.633Z,22.57
2018-04-18T19:03:08.408Z,28.70
2018-04-18T19:05:35.292Z,23.73
2018-04-18T19:08:02.944Z,22.30
2018-04-18T19:10:29.927Z,27.17
2018-04-18T19:12:56.757Z,29.17
2018-04-18T19:15:23.563Z,26.10
2018-04-18T19:17:50.458Z,24.27
2018-04-18T19:20:17.240Z,28.83
2018-04-18T19:22:44.061Z,26.20
2018-04-18T19:25:10.902Z,32.37
2018-04-18T19:27:37.632Z,29.07
2018-04-18T19:30:04.513Z,29.53
2018-04-18T19:32:32.479Z,36.67
2018-04-18T19:34:59.367Z,36.93
2018-04-18T19:37:26.275Z,46.07
2018-04-18T19:39:53.046Z,37.27
2018-04-18T19:42:20.289Z,40.40
2018-04-18T19:44:47.111Z,34.67
2018-04-18T19:47:14.294Z,24.07
2018-04-18T19:49:41.161Z,29.70
2018-04-18T19:52:08.074Z,33.80
2018-04-18T19:54:35.192Z,35.37
2018-04-18T19:57:02.000Z,33.10
2018-04-18T19:59:28.789Z,30.67
2018-04-18T20:01:55.721Z,29.33
2018-04-18T20:04:22.571Z,34.27
2018-04-18T20:06:49.347Z,37.23
2018-04-18T20:09:16.177Z,29.30
2018-04-18T20:11:42.994Z,31.00
2018-04-18T20:14:09.761Z,31.10
2018-04-18T20:16:36.669Z,33.93
2018-04-18T20:19:03.434Z,33.43
2018-04-18T20:21:30.208Z,27.93
2018-04-18T20:23:57.060Z,27.03
2018-04-18T20:26:23.968Z,31.47
2018-04-18T20:28:50.767Z,25.33
2018-04-18T20:31:17.631Z,32.50
2018-04-18T20:33:44.471Z,31.50
2018-04-18T20:36:12.207Z,36.40
2018-04-18T20:38:39.029Z,38.70
2018-04-18T20:41:05.832Z,38.83
2018-04-18T20:43:32.915Z,37.33
2018-04-18T20:45:59.821Z,40.10
2018-04-18T20:48:26.613Z,39.67
2018-04-18T20:50:53.447Z,41.27
2018-04-18T20:53:21.181Z,37.83
2018-04-18T20:55:48.291Z,42.47
2018-04-18T20:58:23.212Z,51.27
2018-04-18T21:00:49.984Z,51.33
2018-04-18T21:03:16.860Z,54.03
2018-04-18T21:05:43.970Z,49.47
2018-04-18T21:08:10.756Z,54.70
2018-04-18T21:10:37.632Z,48.77
2018-04-18T21:13:04.613Z,48.93
2018-04-18T21:15:31.421Z,53.37
2018-04-18T21:17:58.968Z,51.43
2018-04-18T21:20:26.342Z,49.23
2018-04-18T21:22:53.335Z,42.87
2018-04-18T21:25:20.263Z,44.20
2018-04-18T21:27:47.227Z,47.47
2018-04-18T21:30:14.176Z,55.20
2018-04-18T21:32:41.109Z,52.13
2018-04-18T21:35:07.962Z,48.17
2018-04-18T21:37:34.765Z,56.60
2018-04-18T21:40:02.503Z,48.20
2018-04-18T21:42:29.413Z,49.10
2018-04-18T21:44:56.297Z,48.13
2018-04-18T21:47:23.090Z,46.77
2018-04-18T21:49:50.153Z,50.47
2018-04-18T21:52:16.964Z,45.60
2018-04-18T21:54:43.744Z,46.73
2018-04-18T21:57:11.338Z,47.90
2018-04-18T21:59:38.217Z,41.73
2018-04-18T22:02:05.036Z,48.80
2018-04-18T22:04:32.029Z,45.57
2018-04-18T22:06:58.959Z,45.90
2018-04-18T22:09:26.087Z,46.83
2018-04-18T22:11:58.033Z,47.20
2018-04-18T22:14:28.012Z,51.73
2018-04-18T22:16:56.881Z,50.10
2018-04-18T22:19:25.970Z,49.33
2018-04-18T22:21:53.593Z,51.20
2018-04-18T22:24:21.115Z,45.80
2018-04-18T22:26:48.979Z,45.37
2018-04-18T22:29:16.326Z,47.43
2018-04-18T22:31:43.908Z,51.07
2018-04-18T22:34:10.765Z,48.70
2018-04-18T22:36:37.556Z,44.73
2018-04-18T22:39:05.252Z,48.87
2018-04-18T22:41:34.060Z,45.13
2018-04-18T22:44:00.822Z,42.60
2018-04-18T22:46:27.609Z,43.80
2018-04-18T22:48:54.448Z,41.40
2018-04-18T22:51:21.241Z,44.37
2018-04-18T22:53:47.997Z,41.63
2018-04-18T22:56:14.745Z,41.63
2018-04-18T22:58:41.553Z,42.17
2018-04-18T23:01:08.348Z,39.43
2018-04-18T23:03:35.108Z,43.43
2018-04-18T23:06:01.867Z,41.73
2018-04-18T23:08:28.625Z,39.80
2018-04-18T23:10:55.537Z,36.90
2018-04-18T23:13:22.310Z,42.20
2018-04-18T23:15:49.128Z,41.97
2018-04-18T23:18:15.950Z,41.47
2018-04-18T23:20:42.712Z,41.40
2018-04-18T23:23:09.530Z,39.53
2018-04-18T23:25:36.284Z,40.63
2018-04-18T23:28:03.104Z,40.13
2018-04-18T23:30:29.897Z,47.27
2018-04-18T23:32:56.741Z,42.07
2018-04-18T23:35:23.632Z,44.13
2018-04-18T23:37:50.456Z,43.00
2018-04-18T23:40:17.325Z,46.43
2018-04-18T23:42:44.191Z,39.17
2018-04-18T23:45:11.088Z,40.00
2018-04-18T23:47:37.889Z,38.17
2018-04-18T23:50:04.782Z,40.87
2018-04-18T23:52:31.626Z,42.30
2018-04-18T23:54:58.400Z,43.23
2018-04-18T23:57:25.148Z,40.93
2018-04-18T23:59:52.214Z,32.47
